sensor_id;sensor_type;location;lat;lon;timestamp;pressure;altitude;pressure_sealevel;temperature;humidity
74466;BME280;62916;50.044;15.938;2023-07-31T00:02:29;98923.77;;;25.97;47.30
74466;BME280;62916;50.044;15.938;2023-07-31T00:05:00;98926.14;;;25.98;47.40
74466;BME280;62916;50.044;15.938;2023-07-31T00:07:32;98926.77;;;25.97;47.54
74466;BME280;62916;50.044;15.938;2023-07-31T00:10:03;98924.86;;;25.98;47.53
74466;BME280;62916;50.044;15.938;2023-07-31T00:12:35;98925.66;;;25.98;47.57
74466;BME280;62916;50.044;15.938;2023-07-31T00:15:08;98927.46;;;25.98;47.71
74466;BME280;62916;50.044;15.938;2023-07-31T00:17:39;98931.02;;;25.98;47.52
74466;BME280;62916;50.044;15.938;2023-07-31T00:20:11;98929.32;;;25.98;47.43
74466;BME280;62916;50.044;15.938;2023-07-31T00:22:41;98927.91;;;25.97;47.59
74466;BME280;62916;50.044;15.938;2023-07-31T00:25:12;98931.90;;;25.97;47.60
74466;BME280;62916;50.044;15.938;2023-07-31T00:27:43;98930.86;;;25.98;47.76
74466;BME280;62916;50.044;15.938;2023-07-31T00:30:15;98931.38;;;25.96;47.35
74466;BME280;62916;50.044;15.938;2023-07-31T00:32:46;98931.53;;;25.96;47.33
74466;BME280;62916;50.044;15.938;2023-07-31T00:35:17;98930.39;;;25.95;47.40
74466;BME280;62916;50.044;15.938;2023-07-31T00:37:48;98926.96;;;25.94;47.39
74466;BME280;62916;50.044;15.938;2023-07-31T00:40:19;98926.27;;;25.93;47.67
74466;BME280;62916;50.044;15.938;2023-07-31T00:42:50;98924.45;;;25.92;47.56
74466;BME280;62916;50.044;15.938;2023-07-31T00:45:21;98925.02;;;25.92;47.58
74466;BME280;62916;50.044;15.938;2023-07-31T00:47:52;98930.13;;;25.92;47.56
74466;BME280;62916;50.044;15.938;2023-07-31T00:50:25;98927.73;;;25.93;47.58
74466;BME280;62916;50.044;15.938;2023-07-31T00:52:56;98925.20;;;25.93;47.59
74466;BME280;62916;50.044;15.938;2023-07-31T00:55:28;98928.30;;;25.93;47.72
74466;BME280;62916;50.044;15.938;2023-07-31T00:57:59;98923.14;;;25.92;47.80
74466;BME280;62916;50.044;15.938;2023-07-31T01:00:30;98921.63;;;25.93;47.88
74466;BME280;62916;50.044;15.938;2023-07-31T01:03:01;98920.19;;;25.93;47.69
74466;BME280;62916;50.044;15.938;2023-07-31T01:05:39;98918.31;;;25.93;47.57
74466;BME280;62916;50.044;15.938;2023-07-31T01:08:21;98915.39;;;25.93;47.55
74466;BME280;62916;50.044;15.938;2023-07-31T01:10:59;98913.90;;;25.93;47.59
74466;BME280;62916;50.044;15.938;2023-07-31T01:13:31;98911.90;;;25.93;47.71
74466;BME280;62916;50.044;15.938;2023-07-31T01:16:02;98915.14;;;25.93;47.70
74466;BME280;62916;50.044;15.938;2023-07-31T01:18:33;98910.86;;;25.89;47.50
74466;BME280;62916;50.044;15.938;2023-07-31T01:21:17;98912.91;;;25.92;47.41
74466;BME280;62916;50.044;15.938;2023-07-31T01:24:05;98911.55;;;25.92;47.52
74466;BME280;62916;50.044;15.938;2023-07-31T01:26:40;98913.73;;;25.93;47.48
74466;BME280;62916;50.044;15.938;2023-07-31T01:29:20;98913.17;;;25.93;47.37
74466;BME280;62916;50.044;15.938;2023-07-31T01:31:57;98912.73;;;25.91;47.50
74466;BME280;62916;50.044;15.938;2023-07-31T01:34:32;98913.30;;;25.91;47.71
74466;BME280;62916;50.044;15.938;2023-07-31T01:37:05;98910.84;;;25.90;47.16
74466;BME280;62916;50.044;15.938;2023-07-31T01:39:35;98910.60;;;25.88;47.59
74466;BME280;62916;50.044;15.938;2023-07-31T01:42:07;98915.83;;;25.86;47.30
74466;BME280;62916;50.044;15.938;2023-07-31T01:44:38;98912.85;;;25.84;47.42
74466;BME280;62916;50.044;15.938;2023-07-31T01:47:09;98915.49;;;25.83;47.29
74466;BME280;62916;50.044;15.938;2023-07-31T01:49:40;98913.98;;;25.81;47.25
74466;BME280;62916;50.044;15.938;2023-07-31T01:52:11;98908.69;;;25.79;47.50
74466;BME280;62916;50.044;15.938;2023-07-31T01:54:42;98910.77;;;25.80;47.31
74466;BME280;62916;50.044;15.938;2023-07-31T01:57:13;98909.67;;;25.79;47.40
74466;BME280;62916;50.044;15.938;2023-07-31T01:59:44;98907.30;;;25.78;47.28
74466;BME280;62916;50.044;15.938;2023-07-31T02:02:15;98908.41;;;25.78;47.41
74466;BME280;62916;50.044;15.938;2023-07-31T02:04:47;98905.17;;;25.78;47.47
74466;BME280;62916;50.044;15.938;2023-07-31T02:07:17;98904.98;;;25.77;47.08
74466;BME280;62916;50.044;15.938;2023-07-31T02:09:48;98899.60;;;25.76;47.48
74466;BME280;62916;50.044;15.938;2023-07-31T02:12:19;98899.70;;;25.74;47.36
74466;BME280;62916;50.044;15.938;2023-07-31T02:14:50;98900.86;;;25.75;47.39
74466;BME280;62916;50.044;15.938;2023-07-31T02:17:21;98898.82;;;25.74;47.22
74466;BME280;62916;50.044;15.938;2023-07-31T02:19:52;98899.60;;;25.73;47.47
74466;BME280;62916;50.044;15.938;2023-07-31T02:22:23;98904.95;;;25.73;47.23
74466;BME280;62916;50.044;15.938;2023-07-31T02:24:54;98902.75;;;25.72;47.23
74466;BME280;62916;50.044;15.938;2023-07-31T02:27:25;98902.35;;;25.72;47.14
74466;BME280;62916;50.044;15.938;2023-07-31T02:29:57;98897.68;;;25.71;47.20
74466;BME280;62916;50.044;15.938;2023-07-31T02:32:29;98898.59;;;25.69;47.27
74466;BME280;62916;50.044;15.938;2023-07-31T02:35:00;98902.44;;;25.70;47.26
74466;BME280;62916;50.044;15.938;2023-07-31T02:37:30;98904.45;;;25.70;47.23
74466;BME280;62916;50.044;15.938;2023-07-31T02:40:01;98904.27;;;25.69;47.21
74466;BME280;62916;50.044;15.938;2023-07-31T02:42:32;98903.20;;;25.69;47.17
74466;BME280;62916;50.044;15.938;2023-07-31T02:45:04;98900.50;;;25.68;47.20
74466;BME280;62916;50.044;15.938;2023-07-31T02:47:35;98900.55;;;25.67;47.02
74466;BME280;62916;50.044;15.938;2023-07-31T02:50:08;98897.68;;;25.66;46.95
74466;BME280;62916;50.044;15.938;2023-07-31T02:52:38;98897.65;;;25.65;47.11
74466;BME280;62916;50.044;15.938;2023-07-31T02:55:10;98896.95;;;25.66;47.30
74466;BME280;62916;50.044;15.938;2023-07-31T02:57:41;98895.81;;;25.66;47.28
74466;BME280;62916;50.044;15.938;2023-07-31T03:00:13;98895.41;;;25.66;47.10
74466;BME280;62916;50.044;15.938;2023-07-31T03:02:43;98897.98;;;25.66;47.27
74466;BME280;62916;50.044;15.938;2023-07-31T03:05:15;98899.70;;;25.65;47.15
74466;BME280;62916;50.044;15.938;2023-07-31T03:07:45;98893.67;;;25.65;47.02
74466;BME280;62916;50.044;15.938;2023-07-31T03:10:17;98894.86;;;25.64;47.22
74466;BME280;62916;50.044;15.938;2023-07-31T03:12:49;98889.70;;;25.60;47.08
74466;BME280;62916;50.044;15.938;2023-07-31T03:15:20;98898.16;;;25.62;47.17
74466;BME280;62916;50.044;15.938;2023-07-31T03:17:50;98900.58;;;25.62;47.20
74466;BME280;62916;50.044;15.938;2023-07-31T03:20:21;98903.39;;;25.61;47.11
74466;BME280;62916;50.044;15.938;2023-07-31T03:22:52;98905.41;;;25.61;47.26
74466;BME280;62916;50.044;15.938;2023-07-31T03:25:23;98906.49;;;25.62;47.33
74466;BME280;62916;50.044;15.938;2023-07-31T03:27:54;98906.48;;;25.61;47.51
74466;BME280;62916;50.044;15.938;2023-07-31T03:30:25;98906.27;;;25.60;47.34
74466;BME280;62916;50.044;15.938;2023-07-31T03:32:55;98909.75;;;25.60;47.25
74466;BME280;62916;50.044;15.938;2023-07-31T03:35:26;98904.85;;;25.57;47.36
74466;BME280;62916;50.044;15.938;2023-07-31T03:37:57;98906.54;;;25.59;47.24
74466;BME280;62916;50.044;15.938;2023-07-31T03:40:28;98907.26;;;25.60;47.30
74466;BME280;62916;50.044;15.938;2023-07-31T03:42:59;98909.98;;;25.61;47.19
74466;BME280;62916;50.044;15.938;2023-07-31T03:45:30;98907.79;;;25.62;47.20
74466;BME280;62916;50.044;15.938;2023-07-31T03:48:01;98909.50;;;25.62;47.24
74466;BME280;62916;50.044;15.938;2023-07-31T03:50:32;98910.04;;;25.61;47.40
74466;BME280;62916;50.044;15.938;2023-07-31T03:53:02;98910.64;;;25.62;47.20
74466;BME280;62916;50.044;15.938;2023-07-31T03:55:33;98913.14;;;25.62;47.16
74466;BME280;62916;50.044;15.938;2023-07-31T03:58:04;98913.34;;;25.62;47.51
74466;BME280;62916;50.044;15.938;2023-07-31T04:00:35;98919.15;;;25.64;47.37
74466;BME280;62916;50.044;15.938;2023-07-31T04:03:06;98921.35;;;25.65;47.25
74466;BME280;62916;50.044;15.938;2023-07-31T04:05:39;98916.83;;;25.66;47.26
74466;BME280;62916;50.044;15.938;2023-07-31T04:08:10;98918.63;;;25.66;47.21
74466;BME280;62916;50.044;15.938;2023-07-31T04:10:41;98918.91;;;25.70;47.24
74466;BME280;62916;50.044;15.938;2023-07-31T04:13:12;98918.80;;;25.72;47.19
74466;BME280;62916;50.044;15.938;2023-07-31T04:15:43;98918.77;;;25.71;47.10
74466;BME280;62916;50.044;15.938;2023-07-31T04:18:18;98919.42;;;25.71;47.35
74466;BME280;62916;50.044;15.938;2023-07-31T04:20:48;98920.42;;;25.72;47.33
74466;BME280;62916;50.044;15.938;2023-07-31T04:23:19;98916.52;;;25.72;47.32
74466;BME280;62916;50.044;15.938;2023-07-31T04:25:50;98918.44;;;25.71;47.51
74466;BME280;62916;50.044;15.938;2023-07-31T04:28:21;98914.20;;;25.70;47.30
74466;BME280;62916;50.044;15.938;2023-07-31T04:30:52;98914.48;;;25.69;47.29
74466;BME280;62916;50.044;15.938;2023-07-31T04:33:23;98917.33;;;25.69;47.29
74466;BME280;62916;50.044;15.938;2023-07-31T04:35:54;98916.27;;;25.69;47.32
74466;BME280;62916;50.044;15.938;2023-07-31T04:38:25;98917.13;;;25.68;47.11
74466;BME280;62916;50.044;15.938;2023-07-31T04:40:56;98918.08;;;25.67;47.33
74466;BME280;62916;50.044;15.938;2023-07-31T04:43:26;98914.80;;;25.66;47.06
74466;BME280;62916;50.044;15.938;2023-07-31T04:45:58;98917.08;;;25.66;46.80
74466;BME280;62916;50.044;15.938;2023-07-31T04:48:28;98918.59;;;25.65;46.91
74466;BME280;62916;50.044;15.938;2023-07-31T04:51:01;98916.79;;;25.61;47.02
74466;BME280;62916;50.044;15.938;2023-07-31T04:53:33;98915.72;;;25.63;47.11
74466;BME280;62916;50.044;15.938;2023-07-31T04:56:04;98917.73;;;25.63;46.78
74466;BME280;62916;50.044;15.938;2023-07-31T04:58:36;98917.86;;;25.61;46.85
74466;BME280;62916;50.044;15.938;2023-07-31T05:01:07;98919.44;;;25.61;46.68
74466;BME280;62916;50.044;15.938;2023-07-31T05:03:37;98924.02;;;25.59;46.77
74466;BME280;62916;50.044;15.938;2023-07-31T05:06:08;98919.95;;;25.59;46.92
74466;BME280;62916;50.044;15.938;2023-07-31T05:08:39;98919.74;;;25.58;46.64
74466;BME280;62916;50.044;15.938;2023-07-31T05:11:11;98921.09;;;25.58;46.81
74466;BME280;62916;50.044;15.938;2023-07-31T05:13:41;98922.30;;;25.57;46.81
74466;BME280;62916;50.044;15.938;2023-07-31T05:16:12;98917.78;;;25.55;46.61
74466;BME280;62916;50.044;15.938;2023-07-31T05:18:43;98920.77;;;25.55;46.50
74466;BME280;62916;50.044;15.938;2023-07-31T05:21:14;98922.87;;;25.54;46.88
74466;BME280;62916;50.044;15.938;2023-07-31T05:23:44;98927.35;;;25.55;46.72
74466;BME280;62916;50.044;15.938;2023-07-31T05:26:17;98929.44;;;25.54;46.74
74466;BME280;62916;50.044;15.938;2023-07-31T05:28:48;98924.30;;;25.53;46.78
74466;BME280;62916;50.044;15.938;2023-07-31T05:31:18;98921.69;;;25.53;46.54
74466;BME280;62916;50.044;15.938;2023-07-31T05:33:50;98925.30;;;25.52;46.72
74466;BME280;62916;50.044;15.938;2023-07-31T05:36:21;98925.36;;;25.51;46.66
74466;BME280;62916;50.044;15.938;2023-07-31T05:38:52;98922.41;;;25.50;46.65
74466;BME280;62916;50.044;15.938;2023-07-31T05:41:22;98921.73;;;25.49;46.76
74466;BME280;62916;50.044;15.938;2023-07-31T05:43:53;98920.34;;;25.49;46.58
74466;BME280;62916;50.044;15.938;2023-07-31T05:46:24;98915.34;;;25.48;46.37
74466;BME280;62916;50.044;15.938;2023-07-31T05:48:55;98921.76;;;25.48;46.64
74466;BME280;62916;50.044;15.938;2023-07-31T05:51:26;98920.71;;;25.48;46.59
74466;BME280;62916;50.044;15.938;2023-07-31T05:53:58;98920.48;;;25.48;46.65
74466;BME280;62916;50.044;15.938;2023-07-31T05:56:29;98926.39;;;25.48;46.69
74466;BME280;62916;50.044;15.938;2023-07-31T05:59:01;98927.60;;;25.48;46.41
74466;BME280;62916;50.044;15.938;2023-07-31T06:01:32;98926.90;;;25.47;46.67
74466;BME280;62916;50.044;15.938;2023-07-31T06:04:03;98922.11;;;25.46;46.49
74466;BME280;62916;50.044;15.938;2023-07-31T06:06:34;98927.15;;;25.46;46.54
74466;BME280;62916;50.044;15.938;2023-07-31T06:09:06;98930.05;;;25.46;46.50
74466;BME280;62916;50.044;15.938;2023-07-31T06:11:37;98929.64;;;25.45;46.68
74466;BME280;62916;50.044;15.938;2023-07-31T06:14:08;98930.77;;;25.46;46.47
74466;BME280;62916;50.044;15.938;2023-07-31T06:16:38;98934.33;;;25.45;46.29
74466;BME280;62916;50.044;15.938;2023-07-31T06:19:10;98932.05;;;25.45;46.42
74466;BME280;62916;50.044;15.938;2023-07-31T06:21:41;98926.77;;;25.45;46.34
74466;BME280;62916;50.044;15.938;2023-07-31T06:24:13;98926.63;;;25.46;46.38
74466;BME280;62916;50.044;15.938;2023-07-31T06:26:48;98925.89;;;25.44;46.47
74466;BME280;62916;50.044;15.938;2023-07-31T06:29:20;98925.80;;;25.45;46.21
74466;BME280;62916;50.044;15.938;2023-07-31T06:31:51;98927.83;;;25.44;46.25
74466;BME280;62916;50.044;15.938;2023-07-31T06:34:23;98921.98;;;25.44;46.25
74466;BME280;62916;50.044;15.938;2023-07-31T06:36:53;98922.65;;;25.45;46.15
74466;BME280;62916;50.044;15.938;2023-07-31T06:39:24;98921.90;;;25.45;46.12
74466;BME280;62916;50.044;15.938;2023-07-31T06:41:55;98920.48;;;25.43;46.19
74466;BME280;62916;50.044;15.938;2023-07-31T06:44:26;98922.18;;;25.46;46.22
74466;BME280;62916;50.044;15.938;2023-07-31T06:46:57;98923.89;;;25.46;46.15
74466;BME280;62916;50.044;15.938;2023-07-31T06:49:28;98925.40;;;25.45;46.13
74466;BME280;62916;50.044;15.938;2023-07-31T06:51:59;98928.06;;;25.44;45.84
74466;BME280;62916;50.044;15.938;2023-07-31T06:54:30;98930.14;;;25.43;46.18
74466;BME280;62916;50.044;15.938;2023-07-31T06:57:01;98927.12;;;25.43;46.13
74466;BME280;62916;50.044;15.938;2023-07-31T06:59:33;98927.27;;;25.42;46.13
74466;BME280;62916;50.044;15.938;2023-07-31T07:02:04;98925.54;;;25.41;45.96
74466;BME280;62916;50.044;15.938;2023-07-31T07:04:35;98926.58;;;25.41;45.95
74466;BME280;62916;50.044;15.938;2023-07-31T07:07:07;98922.02;;;25.40;46.10
74466;BME280;62916;50.044;15.938;2023-07-31T07:09:38;98920.31;;;25.40;46.04
74466;BME280;62916;50.044;15.938;2023-07-31T07:12:09;98919.50;;;25.41;46.04
74466;BME280;62916;50.044;15.938;2023-07-31T07:14:40;98917.63;;;25.40;46.03
74466;BME280;62916;50.044;15.938;2023-07-31T07:17:11;98918.27;;;25.40;45.92
74466;BME280;62916;50.044;15.938;2023-07-31T07:19:43;98919.27;;;25.41;45.87
74466;BME280;62916;50.044;15.938;2023-07-31T07:22:15;98919.36;;;25.41;45.97
74466;BME280;62916;50.044;15.938;2023-07-31T07:24:46;98919.60;;;25.41;45.63
74466;BME280;62916;50.044;15.938;2023-07-31T07:27:19;98914.16;;;25.41;45.88
74466;BME280;62916;50.044;15.938;2023-07-31T07:29:51;98913.42;;;25.41;45.82
74466;BME280;62916;50.044;15.938;2023-07-31T07:32:23;98911.33;;;25.41;45.67
74466;BME280;62916;50.044;15.938;2023-07-31T07:34:54;98906.21;;;25.41;45.64
74466;BME280;62916;50.044;15.938;2023-07-31T07:37:25;98904.77;;;25.41;45.65
74466;BME280;62916;50.044;15.938;2023-07-31T07:39:56;98906.63;;;25.41;45.68
74466;BME280;62916;50.044;15.938;2023-07-31T07:42:27;98910.11;;;25.41;45.62
74466;BME280;62916;50.044;15.938;2023-07-31T07:44:58;98916.28;;;25.41;45.62
74466;BME280;62916;50.044;15.938;2023-07-31T07:47:29;98910.02;;;25.41;45.62
74466;BME280;62916;50.044;15.938;2023-07-31T07:50:00;98903.27;;;25.40;45.71
74466;BME280;62916;50.044;15.938;2023-07-31T07:52:31;98896.70;;;25.40;45.58
74466;BME280;62916;50.044;15.938;2023-07-31T07:55:02;98900.02;;;25.40;45.73
74466;BME280;62916;50.044;15.938;2023-07-31T07:57:33;98894.83;;;25.40;45.56
74466;BME280;62916;50.044;15.938;2023-07-31T08:00:05;98888.05;;;25.39;45.64
74466;BME280;62916;50.044;15.938;2023-07-31T08:02:36;98892.27;;;25.39;45.51
74466;BME280;62916;50.044;15.938;2023-07-31T08:05:09;98886.52;;;25.39;45.51
74466;BME280;62916;50.044;15.938;2023-07-31T08:07:40;98885.86;;;25.38;45.41
74466;BME280;62916;50.044;15.938;2023-07-31T08:10:11;98890.90;;;25.39;45.52
74466;BME280;62916;50.044;15.938;2023-07-31T08:12:42;98891.16;;;25.39;45.62
74466;BME280;62916;50.044;15.938;2023-07-31T08:15:13;98887.16;;;25.39;45.60
74466;BME280;62916;50.044;15.938;2023-07-31T08:17:44;98887.48;;;25.39;45.42
74466;BME280;62916;50.044;15.938;2023-07-31T08:20:15;98885.13;;;25.39;45.65
74466;BME280;62916;50.044;15.938;2023-07-31T08:22:48;98879.69;;;25.38;45.48
74466;BME280;62916;50.044;15.938;2023-07-31T08:25:20;98879.69;;;25.38;45.70
74466;BME280;62916;50.044;15.938;2023-07-31T08:27:50;98875.21;;;25.38;45.40
74466;BME280;62916;50.044;15.938;2023-07-31T08:30:22;98876.67;;;25.38;45.51
74466;BME280;62916;50.044;15.938;2023-07-31T08:32:53;98878.88;;;25.38;45.59
74466;BME280;62916;50.044;15.938;2023-07-31T08:35:27;98877.17;;;25.38;45.21
74466;BME280;62916;50.044;15.938;2023-07-31T08:37:58;98874.63;;;25.40;45.28
74466;BME280;62916;50.044;15.938;2023-07-31T08:40:29;98871.88;;;25.40;45.33
74466;BME280;62916;50.044;15.938;2023-07-31T08:43:01;98869.63;;;25.41;45.36
74466;BME280;62916;50.044;15.938;2023-07-31T08:45:33;98866.39;;;25.41;45.31
74466;BME280;62916;50.044;15.938;2023-07-31T08:48:05;98873.16;;;25.42;45.40
74466;BME280;62916;50.044;15.938;2023-07-31T08:50:36;98871.40;;;25.43;45.20
74466;BME280;62916;50.044;15.938;2023-07-31T08:53:07;98875.36;;;25.42;45.18
74466;BME280;62916;50.044;15.938;2023-07-31T08:55:39;98873.05;;;25.43;45.39
74466;BME280;62916;50.044;15.938;2023-07-31T08:58:11;98872.06;;;25.43;45.18
74466;BME280;62916;50.044;15.938;2023-07-31T09:00:44;98871.34;;;25.43;45.14
74466;BME280;62916;50.044;15.938;2023-07-31T09:03:17;98861.73;;;25.40;45.01
74466;BME280;62916;50.044;15.938;2023-07-31T09:05:48;98868.47;;;25.42;45.15
74466;BME280;62916;50.044;15.938;2023-07-31T09:08:21;98866.52;;;25.43;45.16
74466;BME280;62916;50.044;15.938;2023-07-31T09:10:52;98864.02;;;25.43;45.12
74466;BME280;62916;50.044;15.938;2023-07-31T09:13:25;98867.55;;;25.44;45.19
74466;BME280;62916;50.044;15.938;2023-07-31T09:15:57;98864.63;;;25.44;45.15
74466;BME280;62916;50.044;15.938;2023-07-31T09:18:29;98865.02;;;25.44;45.13
74466;BME280;62916;50.044;15.938;2023-07-31T09:21:06;98866.73;;;25.44;45.14
74466;BME280;62916;50.044;15.938;2023-07-31T09:23:44;98869.50;;;25.44;45.22
74466;BME280;62916;50.044;15.938;2023-07-31T09:26:30;98874.70;;;25.45;45.14
74466;BME280;62916;50.044;15.938;2023-07-31T09:28:59;98877.14;;;25.46;45.11
74466;BME280;62916;50.044;15.938;2023-07-31T09:31:37;98870.23;;;25.42;45.16
74466;BME280;62916;50.044;15.938;2023-07-31T09:34:09;98874.21;;;25.45;45.08
74466;BME280;62916;50.044;15.938;2023-07-31T09:36:43;98873.17;;;25.46;45.15
74466;BME280;62916;50.044;15.938;2023-07-31T09:39:15;98869.08;;;25.47;44.97
74466;BME280;62916;50.044;15.938;2023-07-31T09:41:47;98871.61;;;25.48;45.05
74466;BME280;62916;50.044;15.938;2023-07-31T09:44:38;98871.87;;;25.48;45.09
74466;BME280;62916;50.044;15.938;2023-07-31T09:47:23;98866.08;;;25.47;44.93
74466;BME280;62916;50.044;15.938;2023-07-31T09:49:55;98865.86;;;25.48;45.09
74466;BME280;62916;50.044;15.938;2023-07-31T09:52:27;98862.83;;;25.49;44.84
74466;BME280;62916;50.044;15.938;2023-07-31T09:54:58;98859.16;;;25.49;45.15
74466;BME280;62916;50.044;15.938;2023-07-31T09:57:30;98861.08;;;25.48;44.87
74466;BME280;62916;50.044;15.938;2023-07-31T10:00:01;98861.77;;;25.49;45.04
74466;BME280;62916;50.044;15.938;2023-07-31T10:02:33;98863.90;;;25.50;44.74
74466;BME280;62916;50.044;15.938;2023-07-31T10:05:05;98865.80;;;25.51;45.23
74466;BME280;62916;50.044;15.938;2023-07-31T10:07:38;98860.02;;;25.50;44.84
74466;BME280;62916;50.044;15.938;2023-07-31T10:10:13;98863.58;;;25.50;44.97
74466;BME280;62916;50.044;15.938;2023-07-31T10:12:47;98857.20;;;25.51;44.83
74466;BME280;62916;50.044;15.938;2023-07-31T10:15:19;98851.98;;;25.50;45.11
74466;BME280;62916;50.044;15.938;2023-07-31T10:17:51;98850.69;;;25.50;45.15
74466;BME280;62916;50.044;15.938;2023-07-31T10:20:23;98847.77;;;25.50;45.04
74466;BME280;62916;50.044;15.938;2023-07-31T10:22:56;98846.22;;;25.50;45.10
74466;BME280;62916;50.044;15.938;2023-07-31T10:25:27;98841.25;;;25.50;44.97
74466;BME280;62916;50.044;15.938;2023-07-31T10:27:58;98835.05;;;25.48;44.97
74466;BME280;62916;50.044;15.938;2023-07-31T10:30:32;98833.59;;;25.48;45.13
74466;BME280;62916;50.044;15.938;2023-07-31T10:33:04;98834.55;;;25.48;45.17
74466;BME280;62916;50.044;15.938;2023-07-31T10:35:36;98827.24;;;25.48;45.30
74466;BME280;62916;50.044;15.938;2023-07-31T10:38:13;98824.41;;;25.48;45.29
74466;BME280;62916;50.044;15.938;2023-07-31T10:40:44;98821.71;;;25.47;45.18
74466;BME280;62916;50.044;15.938;2023-07-31T10:43:26;98824.70;;;25.47;45.11
74466;BME280;62916;50.044;15.938;2023-07-31T10:45:57;98822.81;;;25.46;45.15
74466;BME280;62916;50.044;15.938;2023-07-31T10:48:34;98818.39;;;25.48;45.41
74466;BME280;62916;50.044;15.938;2023-07-31T10:51:10;98815.32;;;25.48;45.40
74466;BME280;62916;50.044;15.938;2023-07-31T10:53:41;98813.28;;;25.50;45.22
74466;BME280;62916;50.044;15.938;2023-07-31T10:56:12;98816.00;;;25.51;45.01
74466;BME280;62916;50.044;15.938;2023-07-31T10:59:01;98813.44;;;25.53;45.26
74466;BME280;62916;50.044;15.938;2023-07-31T11:01:53;98805.30;;;25.52;45.36
74466;BME280;62916;50.044;15.938;2023-07-31T11:04:27;98799.80;;;25.52;45.32
74466;BME280;62916;50.044;15.938;2023-07-31T11:07:02;98798.94;;;25.53;45.26
74466;BME280;62916;50.044;15.938;2023-07-31T11:09:36;98788.71;;;25.53;45.56
74466;BME280;62916;50.044;15.938;2023-07-31T11:12:07;98789.45;;;25.53;45.48
74466;BME280;62916;50.044;15.938;2023-07-31T11:14:39;98792.05;;;25.53;45.17
74466;BME280;62916;50.044;15.938;2023-07-31T11:17:10;98789.70;;;25.54;45.20
74466;BME280;62916;50.044;15.938;2023-07-31T11:19:41;98791.19;;;25.55;45.45
74466;BME280;62916;50.044;15.938;2023-07-31T11:22:12;98785.67;;;25.55;45.33
74466;BME280;62916;50.044;15.938;2023-07-31T11:24:45;98784.29;;;25.55;45.36
74466;BME280;62916;50.044;15.938;2023-07-31T11:27:15;98775.35;;;25.54;45.33
74466;BME280;62916;50.044;15.938;2023-07-31T11:29:46;98775.99;;;25.54;45.16
74466;BME280;62916;50.044;15.938;2023-07-31T11:32:19;98771.69;;;25.54;45.34
74466;BME280;62916;50.044;15.938;2023-07-31T11:34:54;98771.17;;;25.53;45.28
74466;BME280;62916;50.044;15.938;2023-07-31T11:37:28;98767.70;;;25.53;45.27
74466;BME280;62916;50.044;15.938;2023-07-31T11:40:10;98768.51;;;25.53;45.42
74466;BME280;62916;50.044;15.938;2023-07-31T11:42:41;98763.95;;;25.53;45.03
74466;BME280;62916;50.044;15.938;2023-07-31T11:45:12;98769.66;;;25.54;45.14
74466;BME280;62916;50.044;15.938;2023-07-31T11:47:43;98766.50;;;25.54;45.10
74466;BME280;62916;50.044;15.938;2023-07-31T11:50:14;98764.80;;;25.54;45.15
74466;BME280;62916;50.044;15.938;2023-07-31T11:52:46;98762.52;;;25.54;45.25
74466;BME280;62916;50.044;15.938;2023-07-31T11:55:19;98756.36;;;25.54;45.22
74466;BME280;62916;50.044;15.938;2023-07-31T11:57:50;98760.04;;;25.55;45.34
74466;BME280;62916;50.044;15.938;2023-07-31T12:00:23;98757.02;;;25.55;45.41
74466;BME280;62916;50.044;15.938;2023-07-31T12:02:54;98754.86;;;25.56;45.15
74466;BME280;62916;50.044;15.938;2023-07-31T12:05:25;98753.32;;;25.56;45.15
74466;BME280;62916;50.044;15.938;2023-07-31T12:07:57;98745.37;;;25.56;45.41
74466;BME280;62916;50.044;15.938;2023-07-31T12:10:29;98734.94;;;25.57;45.31
74466;BME280;62916;50.044;15.938;2023-07-31T12:13:06;98735.45;;;25.58;45.49
74466;BME280;62916;50.044;15.938;2023-07-31T12:15:41;98729.04;;;25.58;45.28
74466;BME280;62916;50.044;15.938;2023-07-31T12:18:13;98727.57;;;25.58;45.28
74466;BME280;62916;50.044;15.938;2023-07-31T12:20:46;98729.13;;;25.58;45.13
74466;BME280;62916;50.044;15.938;2023-07-31T12:23:18;98719.91;;;25.59;45.00
74466;BME280;62916;50.044;15.938;2023-07-31T12:26:03;98718.45;;;25.59;45.16
74466;BME280;62916;50.044;15.938;2023-07-31T12:28:36;98716.55;;;25.58;45.14
74466;BME280;62916;50.044;15.938;2023-07-31T12:31:10;98715.02;;;25.55;45.17
74466;BME280;62916;50.044;15.938;2023-07-31T12:33:42;98716.25;;;25.56;45.10
74466;BME280;62916;50.044;15.938;2023-07-31T12:36:14;98711.86;;;25.56;45.12
74466;BME280;62916;50.044;15.938;2023-07-31T12:38:46;98704.95;;;25.56;45.17
74466;BME280;62916;50.044;15.938;2023-07-31T12:41:17;98703.91;;;25.56;45.18
74466;BME280;62916;50.044;15.938;2023-07-31T12:43:48;98703.11;;;25.56;45.11
74466;BME280;62916;50.044;15.938;2023-07-31T12:46:19;98696.45;;;25.56;45.08
74466;BME280;62916;50.044;15.938;2023-07-31T12:48:50;98693.31;;;25.57;45.38
74466;BME280;62916;50.044;15.938;2023-07-31T12:51:21;98690.84;;;25.59;45.20
74466;BME280;62916;50.044;15.938;2023-07-31T12:53:52;98684.36;;;25.59;45.31
74466;BME280;62916;50.044;15.938;2023-07-31T12:56:23;98677.64;;;25.59;45.24
74466;BME280;62916;50.044;15.938;2023-07-31T12:58:54;98683.02;;;25.59;45.17
74466;BME280;62916;50.044;15.938;2023-07-31T13:01:26;98680.28;;;25.60;45.36
74466;BME280;62916;50.044;15.938;2023-07-31T13:03:57;98677.38;;;25.60;45.30
74466;BME280;62916;50.044;15.938;2023-07-31T13:06:28;98676.70;;;25.60;45.21
74466;BME280;62916;50.044;15.938;2023-07-31T13:08:59;98671.99;;;25.60;45.22
74466;BME280;62916;50.044;15.938;2023-07-31T13:11:31;98671.31;;;25.61;45.36
74466;BME280;62916;50.044;15.938;2023-07-31T13:14:02;98667.13;;;25.62;45.25
74466;BME280;62916;50.044;15.938;2023-07-31T13:16:33;98665.52;;;25.62;45.24